createdAt,value
2022-07-28T00:01:18.704Z,14.90
2022-07-28T00:03:49.081Z,14.80
2022-07-28T00:06:17.078Z,14.80
2022-07-28T00:08:44.422Z,14.80
2022-07-28T00:11:11.607Z,14.70
2022-07-28T00:13:38.794Z,14.70
2022-07-28T00:16:07.408Z,14.70
2022-07-28T00:18:34.780Z,14.70
2022-07-28T00:21:02.507Z,14.70
2022-07-28T00:23:32.533Z,14.70
2022-07-28T00:26:09.084Z,14.70
2022-07-28T00:28:36.982Z,14.60
2022-07-28T00:31:09.914Z,14.50
2022-07-28T00:33:41.870Z,14.50
2022-07-28T00:36:11.580Z,14.50
2022-07-28T00:38:44.272Z,14.50
2022-07-28T00:41:12.288Z,14.50
2022-07-28T00:43:52.152Z,14.40
2022-07-28T00:46:22.883Z,14.40
2022-07-28T00:48:55.354Z,14.40
2022-07-28T00:51:26.681Z,14.30
2022-07-28T00:53:56.816Z,14.30
2022-07-28T00:56:24.893Z,14.30
2022-07-28T00:58:52.115Z,14.30
2022-07-28T01:01:20.561Z,14.30
2022-07-28T01:04:06.369Z,14.30
2022-07-28T01:07:02.637Z,14.20
2022-07-28T01:09:55.373Z,14.20
2022-07-28T01:13:09.423Z,14.20
2022-07-28T01:15:54.070Z,14.20
2022-07-28T01:18:42.210Z,14.20
2022-07-28T01:21:15.673Z,14.20
2022-07-28T01:24:26.488Z,14.30
2022-07-28T01:27:06.062Z,14.30
2022-07-28T01:30:02.967Z,14.20
2022-07-28T01:32:41.456Z,14.20
2022-07-28T01:35:23.263Z,14.20
2022-07-28T01:37:55.483Z,14.20
2022-07-28T01:40:29.036Z,14.20
2022-07-28T01:43:00.637Z,14.10
2022-07-28T01:45:29.607Z,14.10
2022-07-28T01:48:02.252Z,14.10
2022-07-28T01:50:32.198Z,14.10
2022-07-28T01:53:00.815Z,14.10
2022-07-28T01:55:31.337Z,14.10
2022-07-28T01:57:59.993Z,14.10
2022-07-28T02:00:29.209Z,14.10
2022-07-28T02:02:58.110Z,14.10
2022-07-28T02:05:28.738Z,14.10
2022-07-28T02:07:57.598Z,14.10
2022-07-28T02:10:27.533Z,14.00
2022-07-28T02:12:57.279Z,14.00
2022-07-28T02:15:28.382Z,14.00
2022-07-28T02:17:56.973Z,13.90
2022-07-28T02:20:25.353Z,13.90
2022-07-28T02:22:54.164Z,13.90
2022-07-28T02:25:22.347Z,13.80
2022-07-28T02:28:07.358Z,13.80
2022-07-28T02:30:47.673Z,13.80
2022-07-28T02:33:58.111Z,13.80
2022-07-28T02:36:20.887Z,13.70
2022-07-28T02:38:51.789Z,13.70
2022-07-28T02:41:30.092Z,13.70
2022-07-28T02:44:05.242Z,13.60
2022-07-28T02:46:51.653Z,13.60
2022-07-28T02:49:25.553Z,13.60
2022-07-28T02:51:55.799Z,13.50
2022-07-28T02:54:26.449Z,13.50
2022-07-28T02:56:57.758Z,13.40
2022-07-28T02:59:26.851Z,13.40
2022-07-28T03:01:55.088Z,13.30
2022-07-28T03:04:43.674Z,13.30
2022-07-28T03:07:11.721Z,13.30
2022-07-28T03:09:43.134Z,13.20
2022-07-28T03:12:11.892Z,13.20
2022-07-28T03:14:39.944Z,13.20
2022-07-28T03:17:08.498Z,13.20
2022-07-28T03:19:36.703Z,13.20
2022-07-28T03:22:04.804Z,13.10
2022-07-28T03:24:37.693Z,13.10
2022-07-28T03:27:32.184Z,13.10
2022-07-28T03:30:11.097Z,13.10
2022-07-28T03:32:47.113Z,13.00
2022-07-28T03:35:15.007Z,13.00
2022-07-28T03:38:13.402Z,13.00
2022-07-28T03:40:46.148Z,12.90
2022-07-28T03:43:19.235Z,12.90
2022-07-28T03:45:47.950Z,12.90
2022-07-28T03:48:15.961Z,12.80
2022-07-28T03:50:43.415Z,12.80
2022-07-28T03:53:25.751Z,12.80
2022-07-28T03:55:53.861Z,12.80
2022-07-28T03:58:26.080Z,12.80
2022-07-28T04:00:56.790Z,12.70
2022-07-28T04:03:42.890Z,12.70
2022-07-28T04:06:15.647Z,12.70
2022-07-28T04:08:44.649Z,12.70
2022-07-28T04:11:21.102Z,12.60
2022-07-28T04:13:48.265Z,12.60
2022-07-28T04:16:15.408Z,12.60
2022-07-28T04:18:42.596Z,12.60
2022-07-28T04:21:09.825Z,12.60
2022-07-28T04:23:36.965Z,12.60
2022-07-28T04:26:04.471Z,12.60
2022-07-28T04:28:31.842Z,12.60
2022-07-28T04:30:59.104Z,12.60
2022-07-28T04:33:26.752Z,12.50
2022-07-28T04:35:53.938Z,12.50
2022-07-28T04:38:21.122Z,12.50
2022-07-28T04:40:48.548Z,12.50
2022-07-28T04:43:15.766Z,12.60
2022-07-28T04:45:53.264Z,12.50
2022-07-28T04:48:23.429Z,12.60
2022-07-28T04:50:52.885Z,12.60
2022-07-28T04:53:21.388Z,12.70
2022-07-28T04:55:49.611Z,12.70
2022-07-28T04:58:18.741Z,12.70
2022-07-28T05:00:49.946Z,12.70
2022-07-28T05:03:19.962Z,12.70
2022-07-28T05:05:51.418Z,12.80
2022-07-28T05:08:26.308Z,12.80
2022-07-28T05:10:56.035Z,12.80
2022-07-28T05:13:23.802Z,12.90
2022-07-28T05:15:51.377Z,12.90
2022-07-28T05:18:18.599Z,13.00
2022-07-28T05:20:45.756Z,13.00
2022-07-28T05:23:12.948Z,13.00
2022-07-28T05:25:40.117Z,13.00
2022-07-28T05:28:07.319Z,13.10
2022-07-28T05:30:37.056Z,13.00
2022-07-28T05:33:04.290Z,13.00
2022-07-28T05:35:31.454Z,13.00
2022-07-28T05:37:58.635Z,13.00
2022-07-28T05:40:27.233Z,13.10
2022-07-28T05:42:54.777Z,13.10
2022-07-28T05:45:22.185Z,13.10
2022-07-28T05:47:52.927Z,13.20
2022-07-28T05:50:25.258Z,13.20
2022-07-28T05:52:52.710Z,13.30
2022-07-28T05:55:20.421Z,13.30
2022-07-28T05:57:47.741Z,13.30
2022-07-28T06:00:22.668Z,13.30
2022-07-28T06:02:51.000Z,13.30
2022-07-28T06:05:23.373Z,13.40
2022-07-28T06:07:52.175Z,13.50
2022-07-28T06:10:22.960Z,13.50
2022-07-28T06:12:56.293Z,13.60
2022-07-28T06:15:28.230Z,13.60
2022-07-28T06:17:56.051Z,13.70
2022-07-28T06:20:25.640Z,13.70
2022-07-28T06:22:55.878Z,13.70
2022-07-28T06:25:31.263Z,13.70
2022-07-28T06:28:01.236Z,13.80
2022-07-28T06:30:29.388Z,13.80
2022-07-28T06:32:58.055Z,13.90
2022-07-28T06:35:25.420Z,14.00
2022-07-28T06:37:53.914Z,14.00
2022-07-28T06:40:22.448Z,14.10
2022-07-28T06:42:50.558Z,14.10
2022-07-28T06:45:21.583Z,14.20
2022-07-28T06:47:53.606Z,14.20
2022-07-28T06:50:24.888Z,14.30
2022-07-28T06:52:55.739Z,14.40
2022-07-28T06:55:23.023Z,14.40
2022-07-28T06:57:50.427Z,14.50
2022-07-28T07:00:17.959Z,14.50
2022-07-28T07:02:45.144Z,14.60
2022-07-28T07:05:13.199Z,14.60
2022-07-28T07:07:43.313Z,14.70
2022-07-28T07:10:11.754Z,14.80
2022-07-28T07:12:39.553Z,14.80
2022-07-28T07:15:08.280Z,14.90
2022-07-28T07:17:37.530Z,15.00
2022-07-28T07:20:07.007Z,15.10
2022-07-28T07:22:34.583Z,15.10
2022-07-28T07:25:18.051Z,15.20
2022-07-28T07:27:46.599Z,15.20
2022-07-28T07:30:16.391Z,15.30
2022-07-28T07:32:44.664Z,15.50
2022-07-28T07:35:12.654Z,15.50
2022-07-28T07:37:40.419Z,15.60
2022-07-28T07:40:09.591Z,15.70
2022-07-28T07:42:37.382Z,15.80
2022-07-28T07:45:05.409Z,15.90
2022-07-28T07:47:32.610Z,16.00
2022-07-28T07:50:03.946Z,16.10
2022-07-28T07:52:32.247Z,16.10
2022-07-28T07:54:59.386Z,16.20
2022-07-28T07:57:27.218Z,16.30
2022-07-28T07:59:54.298Z,16.40
2022-07-28T08:02:21.386Z,16.50
2022-07-28T08:04:48.582Z,16.60
2022-07-28T08:07:15.800Z,16.70
2022-07-28T08:09:43.019Z,16.80
2022-07-28T08:12:10.179Z,16.80
2022-07-28T08:14:37.328Z,16.90
2022-07-28T08:17:04.554Z,17.00
2022-07-28T08:19:31.744Z,17.10
2022-07-28T08:21:58.952Z,17.20
2022-07-28T08:24:32.997Z,17.30
2022-07-28T08:27:05.117Z,17.40
2022-07-28T08:29:32.749Z,17.50
2022-07-28T08:32:04.212Z,17.60
2022-07-28T08:34:33.612Z,17.80
2022-07-28T08:37:05.963Z,18.00
2022-07-28T08:39:35.380Z,18.20
2022-07-28T08:42:29.328Z,18.30
2022-07-28T08:45:04.468Z,18.40
2022-07-28T08:47:45.859Z,18.40
2022-07-28T08:50:25.143Z,18.50
2022-07-28T08:52:54.113Z,18.60
2022-07-28T08:55:32.031Z,18.80
2022-07-28T08:58:00.785Z,18.90
2022-07-28T09:00:28.708Z,19.00
2022-07-28T09:02:56.450Z,19.10
2022-07-28T09:05:24.704Z,19.20
2022-07-28T09:07:55.710Z,19.20
2022-07-28T09:10:23.888Z,19.30
2022-07-28T09:12:51.684Z,19.30
2022-07-28T09:15:18.999Z,19.50
2022-07-28T09:17:46.156Z,19.60
2022-07-28T09:20:13.956Z,19.70
2022-07-28T09:23:01.950Z,19.80
2022-07-28T09:25:31.121Z,19.90
2022-07-28T09:28:18.201Z,20.00
2022-07-28T09:30:53.865Z,20.10
2022-07-28T09:33:41.875Z,20.10
2022-07-28T09:36:16.274Z,20.10
2022-07-28T09:38:44.130Z,20.30
2022-07-28T09:41:12.046Z,20.40
2022-07-28T09:43:43.405Z,20.40
2022-07-28T09:46:24.922Z,20.50
2022-07-28T09:48:59.690Z,20.50
2022-07-28T09:51:31.056Z,20.50
2022-07-28T09:54:17.901Z,20.60
2022-07-28T09:56:46.534Z,20.60
2022-07-28T09:59:15.101Z,20.60
2022-07-28T10:02:02.500Z,20.70
2022-07-28T10:04:39.478Z,20.70
2022-07-28T10:07:14.006Z,20.80
2022-07-28T10:09:42.043Z,20.90
2022-07-28T10:12:33.117Z,21.00
2022-07-28T10:15:34.861Z,21.00
2022-07-28T10:18:03.400Z,21.10
2022-07-28T10:20:33.547Z,21.10
2022-07-28T10:23:09.464Z,21.20
2022-07-28T10:25:40.475Z,21.30
2022-07-28T10:28:11.311Z,21.40
2022-07-28T10:30:41.353Z,21.60
2022-07-28T10:33:15.481Z,21.70
2022-07-28T10:35:54.328Z,21.80
2022-07-28T10:38:27.192Z,21.90
2022-07-28T10:40:56.428Z,21.90
2022-07-28T10:43:26.508Z,22.10
2022-07-28T10:46:05.461Z,22.30
2022-07-28T10:48:35.863Z,22.40
2022-07-28T10:51:03.396Z,22.50
2022-07-28T10:53:54.614Z,22.50
2022-07-28T10:56:52.382Z,22.60
2022-07-28T10:59:49.125Z,22.70
2022-07-28T11:02:44.884Z,22.80
2022-07-28T11:05:31.580Z,22.80
2022-07-28T11:08:06.449Z,22.80
2022-07-28T11:11:00.872Z,22.90
2022-07-28T11:13:40.850Z,23.00
2022-07-28T11:16:18.774Z,23.20
2022-07-28T11:19:38.045Z,23.50
2022-07-28T11:22:14.557Z,23.60
2022-07-28T11:25:18.771Z,23.70
2022-07-28T11:27:52.421Z,23.80
2022-07-28T11:30:21.374Z,24.00
2022-07-28T11:32:51.657Z,24.30
2022-07-28T11:35:20.991Z,24.50
2022-07-28T11:38:03.629Z,24.50
2022-07-28T11:40:33.286Z,24.60
2022-07-28T11:43:26.705Z,24.60
2022-07-28T11:46:11.180Z,24.80
2022-07-28T11:48:44.936Z,24.90
2022-07-28T11:51:14.377Z,24.90
2022-07-28T11:53:45.064Z,24.80
2022-07-28T11:56:15.826Z,24.70
2022-07-28T11:58:44.176Z,24.60
2022-07-28T12:01:21.297Z,24.60
2022-07-28T12:03:55.069Z,24.50
2022-07-28T12:06:28.484Z,24.60
2022-07-28T12:09:08.205Z,24.70
2022-07-28T12:11:41.383Z,24.70
2022-07-28T12:14:09.708Z,24.70
2022-07-28T12:16:41.511Z,24.90
2022-07-28T12:19:10.503Z,24.90
2022-07-28T12:21:46.415Z,25.00
2022-07-28T12:24:29.447Z,25.10
2022-07-28T12:27:00.399Z,25.20
2022-07-28T12:29:32.233Z,25.30
2022-07-28T12:32:12.187Z,25.50
2022-07-28T12:34:44.333Z,25.70
2022-07-28T12:37:14.241Z,25.90
2022-07-28T12:39:44.047Z,26.00
2022-07-28T12:42:13.376Z,26.10
2022-07-28T12:44:46.993Z,26.20
2022-07-28T12:47:24.674Z,26.30
2022-07-28T12:50:13.250Z,26.40
2022-07-28T12:53:00.956Z,26.50
2022-07-28T12:55:29.510Z,26.60
2022-07-28T12:57:57.271Z,26.80
2022-07-28T13:00:35.756Z,27.00
2022-07-28T13:03:27.438Z,27.10
2022-07-28T13:06:03.487Z,27.30
2022-07-28T13:08:47.607Z,27.50
2022-07-28T13:11:42.760Z,27.70
2022-07-28T13:14:04.328Z,27.90
2022-07-28T13:16:31.601Z,28.20
2022-07-28T13:19:04.053Z,28.40
2022-07-28T13:21:57.048Z,28.50
2022-07-28T13:24:29.199Z,28.70
2022-07-28T13:26:58.428Z,28.70
2022-07-28T13:29:25.960Z,28.80
2022-07-28T13:31:54.867Z,28.80
2022-07-28T13:34:22.433Z,29.00
2022-07-28T13:36:49.799Z,29.10
2022-07-28T13:39:16.937Z,29.30
2022-07-28T13:41:56.870Z,29.40
2022-07-28T13:44:31.639Z,29.60
2022-07-28T13:47:01.186Z,29.70
2022-07-28T13:49:30.388Z,29.90
2022-07-28T13:51:59.651Z,30.10
2022-07-28T13:54:28.434Z,30.20
2022-07-28T13:57:10.816Z,30.20
2022-07-28T13:59:39.337Z,30.40
2022-07-28T14:02:15.678Z,30.50
2022-07-28T14:04:46.013Z,30.60
2022-07-28T14:07:16.143Z,30.70
2022-07-28T14:09:48.819Z,30.90
2022-07-28T14:12:15.923Z,31.00
2022-07-28T14:14:47.762Z,31.10
2022-07-28T14:20:10.712Z,31.40
2022-07-28T14:22:37.841Z,31.60
2022-07-28T14:25:05.622Z,31.80
2022-07-28T14:27:32.895Z,31.70
2022-07-28T14:30:03.177Z,31.80
2022-07-28T14:32:33.040Z,31.90
2022-07-28T14:35:02.383Z,32.00
2022-07-28T14:37:36.303Z,31.90
2022-07-28T14:40:09.033Z,31.80
2022-07-28T14:42:36.203Z,31.60
2022-07-28T14:45:05.673Z,31.50
2022-07-28T14:47:44.412Z,31.40
2022-07-28T14:50:12.975Z,31.40
2022-07-28T14:52:40.372Z,31.50
2022-07-28T14:55:08.242Z,31.50
2022-07-28T14:57:52.003Z,31.50
2022-07-28T15:00:24.541Z,31.50
2022-07-28T15:02:53.331Z,31.50
2022-07-28T15:05:21.948Z,31.30
2022-07-28T15:07:52.120Z,31.20
2022-07-28T15:10:20.566Z,31.10
2022-07-28T15:12:47.932Z,31.10
2022-07-28T15:15:15.030Z,31.10
2022-07-28T15:17:42.231Z,31.10
2022-07-28T15:20:10.696Z,30.90
2022-07-28T15:22:38.042Z,30.80
2022-07-28T15:25:06.072Z,30.70
2022-07-28T15:27:34.027Z,30.60
2022-07-28T15:30:02.562Z,30.60
2022-07-28T15:32:31.485Z,30.60
2022-07-28T15:34:59.839Z,30.60
2022-07-28T15:37:28.179Z,30.50
2022-07-28T15:39:55.489Z,30.40
2022-07-28T15:42:22.721Z,30.30
2022-07-28T15:44:49.879Z,30.10
2022-07-28T15:47:17.123Z,30.00
2022-07-28T15:49:44.283Z,29.90
2022-07-28T15:52:11.887Z,29.80
2022-07-28T15:54:39.062Z,29.70
2022-07-28T15:57:06.431Z,29.60
2022-07-28T15:59:49.132Z,29.40
2022-07-28T16:02:19.335Z,29.30
2022-07-28T16:04:53.138Z,29.20
2022-07-28T16:07:23.596Z,29.20
2022-07-28T16:09:54.994Z,29.20
2022-07-28T16:12:24.962Z,29.10
2022-07-28T16:14:54.189Z,29.00
2022-07-28T16:17:24.996Z,29.00
2022-07-28T16:19:53.847Z,28.90
2022-07-28T16:22:21.524Z,28.80
2022-07-28T16:24:50.900Z,28.80
2022-07-28T16:27:18.499Z,28.70
2022-07-28T16:29:46.070Z,28.60
2022-07-28T16:34:54.503Z,28.40
2022-07-28T16:37:21.702Z,28.40
2022-07-28T16:39:49.097Z,28.30
2022-07-28T16:42:16.895Z,28.20
2022-07-28T16:44:44.132Z,28.20
2022-07-28T16:47:12.343Z,28.10
2022-07-28T16:49:43.701Z,28.00
2022-07-28T16:52:14.051Z,27.90
2022-07-28T16:54:41.486Z,27.80
2022-07-28T16:57:08.793Z,27.70
2022-07-28T16:59:37.676Z,27.70
2022-07-28T17:02:17.523Z,27.60
2022-07-28T17:04:45.043Z,27.50
2022-07-28T17:07:13.507Z,27.50
2022-07-28T17:09:40.671Z,27.50
2022-07-28T17:12:09.292Z,27.50
2022-07-28T17:14:36.855Z,27.60
2022-07-28T17:17:04.098Z,27.70
2022-07-28T17:19:32.914Z,27.70
2022-07-28T17:22:01.235Z,27.80
2022-07-28T17:24:28.568Z,27.80
2022-07-28T17:29:44.057Z,27.80
2022-07-28T17:32:11.606Z,27.80
2022-07-28T17:34:38.843Z,27.90
2022-07-28T17:37:06.407Z,27.80
2022-07-28T17:39:33.539Z,27.70
2022-07-28T17:42:00.717Z,27.60
2022-07-28T17:44:27.902Z,27.40
2022-07-28T17:46:55.096Z,27.30
2022-07-28T17:49:22.378Z,27.20
2022-07-28T17:51:50.179Z,27.20
2022-07-28T17:54:19.261Z,27.10
2022-07-28T17:56:49.786Z,27.00
2022-07-28T17:59:16.898Z,26.90
2022-07-28T18:01:45.629Z,26.80
2022-07-28T18:04:13.262Z,26.60
2022-07-28T18:06:40.687Z,26.50
2022-07-28T18:09:12.154Z,26.40
2022-07-28T18:11:57.192Z,26.30
2022-07-28T18:14:27.995Z,26.30
2022-07-28T18:16:55.441Z,26.20
2022-07-28T18:19:22.801Z,26.10
2022-07-28T18:21:50.062Z,25.90
2022-07-28T18:24:18.367Z,25.80
2022-07-28T18:26:45.963Z,25.60
2022-07-28T18:29:13.153Z,25.40
2022-07-28T18:31:45.859Z,25.30
2022-07-28T18:34:15.756Z,25.20
2022-07-28T18:36:43.361Z,25.10
2022-07-28T18:39:10.744Z,25.00
2022-07-28T18:41:46.135Z,24.90
2022-07-28T18:44:19.231Z,24.70
2022-07-28T18:46:47.833Z,24.60
2022-07-28T18:49:15.875Z,24.50
2022-07-28T18:51:44.292Z,24.40
2022-07-28T18:54:24.809Z,24.30
2022-07-28T18:56:55.615Z,24.20
2022-07-28T18:59:23.514Z,24.10
2022-07-28T19:01:50.732Z,24.00
2022-07-28T19:04:18.593Z,24.00
2022-07-28T19:06:46.264Z,23.80
2022-07-28T19:09:13.490Z,23.70
2022-07-28T19:11:45.643Z,23.70
2022-07-28T19:14:14.187Z,23.50
2022-07-28T19:16:41.675Z,23.50
2022-07-28T19:19:08.951Z,23.40
2022-07-28T19:21:36.436Z,23.30
2022-07-28T19:24:04.257Z,23.20
2022-07-28T19:26:31.580Z,23.20
2022-07-28T19:28:58.903Z,23.10
2022-07-28T19:31:26.123Z,23.10
2022-07-28T19:33:53.685Z,23.00
2022-07-28T19:36:22.437Z,22.90
2022-07-28T19:38:49.964Z,22.80
2022-07-28T19:41:17.259Z,22.80
2022-07-28T19:43:44.607Z,22.70
2022-07-28T19:46:11.846Z,22.50
2022-07-28T19:48:39.654Z,22.50
2022-07-28T19:51:07.092Z,22.40
2022-07-28T19:53:34.485Z,22.30
2022-07-28T19:56:03.168Z,22.30
2022-07-28T19:58:34.323Z,22.20
2022-07-28T20:01:04.613Z,22.10
2022-07-28T20:04:03.159Z,22.00
2022-07-28T20:06:24.647Z,22.00
2022-07-28T20:08:54.360Z,21.90
2022-07-28T20:11:21.782Z,21.80
2022-07-28T20:13:49.578Z,21.70
2022-07-28T20:16:17.830Z,21.70
2022-07-28T20:18:45.180Z,21.60
2022-07-28T20:21:12.377Z,21.50
2022-07-28T20:23:40.968Z,21.50
2022-07-28T20:26:09.846Z,21.50
2022-07-28T20:28:37.977Z,21.40
2022-07-28T20:31:07.432Z,21.40
2022-07-28T20:33:34.742Z,21.30
2022-07-28T20:36:02.024Z,21.30
2022-07-28T20:38:29.169Z,21.20
2022-07-28T20:40:56.555Z,21.30
2022-07-28T20:43:23.697Z,21.20
2022-07-28T20:45:58.688Z,21.20
2022-07-28T20:48:26.010Z,21.20
2022-07-28T20:50:53.184Z,21.10
2022-07-28T20:53:20.353Z,21.10
2022-07-28T20:55:47.518Z,21.10
2022-07-28T20:58:14.687Z,21.10
2022-07-28T21:00:41.939Z,21.00
2022-07-28T21:03:09.094Z,21.00
2022-07-28T21:05:36.326Z,20.90
2022-07-28T21:08:09.560Z,21.00
2022-07-28T21:10:43.552Z,20.90
2022-07-28T21:13:11.208Z,20.90
2022-07-28T21:15:38.398Z,20.80
2022-07-28T21:18:05.713Z,20.80
2022-07-28T21:20:32.897Z,20.80
2022-07-28T21:23:00.065Z,20.70
2022-07-28T21:25:27.186Z,20.70
2022-07-28T21:28:12.657Z,20.70
2022-07-28T21:30:39.812Z,20.60
2022-07-28T21:33:06.999Z,20.60
2022-07-28T21:35:34.401Z,20.60
2022-07-28T21:38:01.552Z,20.60
2022-07-28T21:40:28.817Z,20.60
2022-07-28T21:42:56.178Z,20.60
2022-07-28T21:45:23.427Z,20.60
2022-07-28T21:47:50.725Z,20.60
2022-07-28T21:50:17.923Z,20.50
2022-07-28T21:52:45.158Z,20.50
2022-07-28T21:55:12.317Z,20.50
2022-07-28T21:57:39.468Z,20.40
2022-07-28T22:00:14.903Z,20.40
2022-07-28T22:02:42.071Z,20.40
2022-07-28T22:05:10.123Z,20.40
2022-07-28T22:07:37.304Z,20.30
2022-07-28T22:10:05.938Z,20.30
2022-07-28T22:12:33.083Z,20.30
2022-07-28T22:15:00.239Z,20.30
2022-07-28T22:17:27.388Z,20.20
2022-07-28T22:19:54.559Z,20.20
2022-07-28T22:22:21.732Z,20.20
2022-07-28T22:24:48.823Z,20.20
2022-07-28T22:27:16.185Z,20.10
2022-07-28T22:29:45.945Z,20.10
2022-07-28T22:32:28.531Z,20.10
2022-07-28T22:34:56.767Z,20.10
2022-07-28T22:37:23.944Z,20.00
2022-07-28T22:39:51.089Z,20.00
2022-07-28T22:42:18.365Z,20.00
2022-07-28T22:44:45.496Z,19.90
2022-07-28T22:47:12.632Z,19.90
2022-07-28T22:49:39.742Z,19.90
2022-07-28T22:52:07.017Z,19.90
2022-07-28T22:54:39.118Z,19.80
2022-07-28T22:57:06.991Z,19.80
2022-07-28T22:59:38.670Z,19.80
2022-07-28T23:02:07.867Z,19.70
2022-07-28T23:04:38.130Z,19.70
2022-07-28T23:07:05.853Z,19.50
2022-07-28T23:09:39.904Z,19.40
2022-07-28T23:12:08.567Z,19.40
2022-07-28T23:14:35.935Z,19.20
2022-07-28T23:17:03.639Z,19.10
2022-07-28T23:19:30.875Z,19.10
2022-07-28T23:21:57.970Z,19.10
2022-07-28T23:24:25.172Z,19.10
2022-07-28T23:26:52.287Z,19.10
2022-07-28T23:29:19.389Z,19.10
2022-07-28T23:31:46.743Z,19.10
2022-07-28T23:34:14.153Z,19.20
2022-07-28T23:36:41.583Z,19.20
2022-07-28T23:39:08.792Z,19.20
2022-07-28T23:41:36.031Z,19.20
2022-07-28T23:44:03.286Z,19.10
2022-07-28T23:46:30.443Z,19.10
2022-07-28T23:48:58.067Z,19.10
2022-07-28T23:51:47.209Z,19.10
2022-07-28T23:54:14.575Z,19.10
2022-07-28T23:56:42.779Z,19.10
2022-07-28T23:59:13.691Z,19.00
